Time;durP1;ratioP1;P1;durP2;ratioP2;P2;SDS_P1;SDS_P2;PMS_P1;PMS_P2;Temp;Humidity;BMP_temperature;BMP_pressure;BME280_temperature;BME280_humidity;BME280_pressure;Samples;Min_cycle;Max_cycle;Signal;HPM_P1;HPM_P2
2022/06/28 00:00:17;;;;;;;14.38;6.35;;;;;;;23.72;68.86;100379.56;6210348;23;20422;-74
2022/06/28 00:02:42;;;;;;;12.07;6.45;;;;;;;23.64;69.40;100371.59;6210389;23;20083;-74
2022/06/28 00:05:08;;;;;;;8.13;6.07;;;;;;;23.56;69.67;100360.91;6210556;23;20043;-74
2022/06/28 00:07:34;;;;;;;11.52;6.15;;;;;;;23.65;69.38;100366.97;6210182;23;20016;-74
2022/06/28 00:09:59;;;;;;;15.82;6.75;;;;;;;23.68;69.47;100375.59;6210480;23;20414;-73
2022/06/28 00:12:25;;;;;;;12.95;6.28;;;;;;;23.67;69.51;100371.16;6210394;23;20004;-73
2022/06/28 00:17:35;;;;;;;9.68;6.18;;;;;;;23.57;69.83;100370.78;6210149;23;20074;-74
2022/06/28 00:20:01;;;;;;;9.38;5.97;;;;;;;23.58;70.08;100358.78;6210190;23;20008;-74
2022/06/28 00:22:26;;;;;;;15.15;6.53;;;;;;;23.53;70.04;100353.13;6210404;23;20019;-74
2022/06/28 00:24:52;;;;;;;9.77;6.20;;;;;;;23.57;69.79;100367.22;6210261;23;20019;-74
2022/06/28 00:27:18;;;;;;;13.27;6.20;;;;;;;23.57;69.77;100369.97;6211554;23;20422;-74
2022/06/28 00:29:44;;;;;;;10.25;6.28;;;;;;;23.46;69.51;100351.47;6212127;23;20005;-74
2022/06/28 00:32:09;;;;;;;10.13;5.95;;;;;;;;;;6212328;23;20310;-73
2022/06/28 00:34:34;;;;;;;10.07;6.10;;;;;;;23.49;69.65;100365.56;6211924;23;20028;-74
2022/06/28 00:37:00;;;;;;;15.55;6.78;;;;;;;23.46;70.04;100371.47;6212307;23;20012;-74
2022/06/28 00:39:25;;;;;;;12.82;6.43;;;;;;;23.43;69.93;100374.66;6212299;23;20607;-73
2022/06/28 00:41:51;;;;;;;8.73;6.28;;;;;;;23.41;69.77;100368.53;6212540;23;20012;-74
2022/06/28 00:44:19;;;;;;;8.68;5.72;;;;;;;23.38;69.75;100366.22;6212589;23;20512;-74
2022/06/28 00:46:45;;;;;;;11.73;6.45;;;;;;;23.21;69.58;100337.63;6211874;23;20445;-73
2022/06/28 00:49:12;;;;;;;11.13;6.07;;;;;;;23.27;69.93;100357.84;6211982;23;19997;-75
2022/06/28 00:51:39;;;;;;;10.00;5.70;;;;;;;23.13;70.07;100345.22;6212004;23;20032;-75
2022/06/28 00:54:04;;;;;;;14.20;6.47;;;;;;;23.21;70.51;100367.72;6212138;23;20001;-74
2022/06/28 00:56:30;;;;;;;9.70;6.55;;;;;;;23.08;70.86;100359.56;6179989;23;20120;-74
2022/06/28 00:58:56;;;;;;;14.95;6.50;;;;;;;23.05;71.05;100354.50;6180460;23;20020;-74
2022/06/28 01:01:25;;;;;;;12.30;6.03;;;;;;;23.11;70.98;100367.34;6182183;23;20047;-74
2022/06/28 01:03:52;;;;;;;10.48;5.78;;;;;;;23.02;71.21;100357.66;6180091;23;20008;-74
2022/06/28 01:06:18;;;;;;;9.38;5.70;;;;;;;23.01;71.26;100344.19;6182049;23;20005;-74
2022/06/28 01:08:47;;;;;;;8.35;5.13;;;;;;;22.94;71.32;100338.75;6181860;23;20000;-74
2022/06/28 01:11:20;;;;;;;12.63;5.40;;;;;;;22.97;71.23;100352.00;6181849;23;20084;-74
2022/06/28 01:13:53;;;;;;;8.90;5.45;;;;;;;22.97;71.34;100345.69;6181722;23;20024;-74
2022/06/28 01:16:20;;;;;;;8.95;5.53;;;;;;;22.95;71.33;100351.38;6182156;23;20044;-73
2022/06/28 01:18:46;;;;;;;9.48;5.75;;;;;;;22.93;71.25;100352.66;6181776;23;20076;-74
2022/06/28 01:21:13;;;;;;;10.32;5.28;;;;;;;22.91;71.08;100341.06;6182214;23;20040;-73
2022/06/28 01:23:41;;;;;;;7.93;5.22;;;;;;;22.79;70.93;100332.69;6205135;23;20128;-74
2022/06/28 01:26:06;;;;;;;8.40;5.45;;;;;;;22.74;71.31;100337.97;6181919;23;20015;-74
2022/06/28 01:28:33;;;;;;;10.48;5.18;;;;;;;22.81;71.60;100352.47;6181434;23;20001;-73
2022/06/28 01:30:59;;;;;;;10.73;4.90;;;;;;;22.78;71.79;100354.75;6181649;23;20722;-74
2022/06/28 01:33:25;;;;;;;11.82;5.35;;;;;;;22.76;72.07;100360.44;6181815;23;20001;-74
2022/06/28 01:35:50;;;;;;;13.45;5.10;;;;;;;22.68;71.59;100360.69;6181617;23;20008;-74
2022/06/28 01:38:16;;;;;;;11.50;5.93;;;;;;;22.70;71.45;100363.22;6181233;23;20538;-73
2022/06/28 01:40:45;;;;;;;9.38;4.97;;;;;;;22.64;71.21;100359.44;6181562;23;20072;-73
2022/06/28 01:43:13;;;;;;;8.35;5.35;;;;;;;22.67;71.26;100367.22;6181674;23;20438;-73
2022/06/28 01:45:39;;;;;;;15.25;5.25;;;;;;;22.68;70.90;100370.75;6181265;23;20422;-74
2022/06/28 01:48:05;;;;;;;11.25;5.25;;;;;;;22.64;71.11;100364.91;6181611;23;20004;-74
2022/06/28 01:50:31;;;;;;;7.63;5.30;;;;;;;22.57;71.47;100358.56;6180855;23;20084;-73
2022/06/28 01:52:57;;;;;;;10.10;5.70;;;;;;;22.54;71.80;100352.69;6181806;23;20005;-74
2022/06/28 01:55:22;;;;;;;8.88;5.47;;;;;;;22.59;71.92;100366.56;6185289;23;20043;-74
2022/06/28 01:57:48;;;;;;;8.20;5.35;;;;;;;22.57;72.15;100366.75;6211595;23;20067;-73
2022/06/28 02:00:13;;;;;;;13.05;5.38;;;;;;;22.52;72.00;100360.25;6211145;23;20449;-74
2022/06/28 02:02:39;;;;;;;11.00;5.93;;;;;;;22.48;71.96;100354.34;6211187;23;20337;-73
2022/06/28 02:05:05;;;;;;;8.82;5.60;;;;;;;22.44;72.18;100355.78;6211515;23;20008;-74
2022/06/28 02:07:30;;;;;;;12.55;5.20;;;;;;;22.38;72.40;100351.19;6211272;23;20005;-74
2022/06/28 02:09:56;;;;;;;9.82;5.80;;;;;;;22.41;72.09;100358.13;6211571;23;20086;-73
2022/06/28 02:12:21;;;;;;;12.88;5.50;;;;;;;22.40;72.51;100361.94;6211454;23;20043;-74
2022/06/28 02:14:47;;;;;;;7.72;5.57;;;;;;;22.30;72.17;100348.66;6211420;23;20001;-74
2022/06/28 02:17:12;;;;;;;8.80;5.50;;;;;;;22.36;72.09;100358.75;6211431;23;20007;-73
2022/06/28 02:19:38;;;;;;;10.32;5.70;;;;;;;22.28;72.40;100350.78;6210969;23;20001;-74
2022/06/28 02:22:03;;;;;;;8.02;5.50;;;;;;;22.27;72.47;100358.13;6184467;23;20091;-73
2022/06/28 02:24:30;;;;;;;12.75;5.60;;;;;;;22.22;72.86;100357.91;6211228;23;20080;-74
2022/06/28 02:26:55;;;;;;;7.75;4.95;;;;;;;22.27;72.59;100370.94;6211010;23;20083;-74
2022/06/28 02:29:21;;;;;;;9.35;5.53;;;;;;;22.20;72.81;100364.63;6211235;23;20727;-74
2022/06/28 02:31:47;;;;;;;9.30;4.95;;;;;;;22.16;72.69;100364.19;6209221;23;20517;-74
2022/06/28 02:40:21;;;;;;;8.85;5.28;;;;;;;22.20;72.99;100381.03;6211073;23;20039;-75
2022/06/28 02:42:26;;;;;;;12.30;5.50;;;;;;;22.15;73.22;100383.50;6211369;23;19972;-73
2022/06/28 02:44:52;;;;;;;20.77;5.68;;;;;;;22.12;73.40;100383.97;6210917;23;20008;-75
2022/06/28 02:47:17;;;;;;;10.70;5.30;;;;;;;22.04;73.14;100378.69;6211052;23;20012;-74
2022/06/28 02:49:43;;;;;;;7.75;5.00;;;;;;;22.03;73.19;100385.19;6210895;23;20433;-73
2022/06/28 02:52:08;;;;;;;9.40;4.45;;;;;;;21.97;73.11;100381.41;6210683;23;20011;-75
2022/06/28 02:54:34;;;;;;;7.25;4.78;;;;;;;21.95;73.15;100388.97;6211124;23;20000;-74
2022/06/28 02:56:59;;;;;;;6.72;4.72;;;;;;;21.93;73.00;100393.78;6210737;23;20023;-73
2022/06/28 02:59:24;;;;;;;11.27;5.32;;;;;;;21.99;72.96;100394.88;6210776;23;20016;-74
2022/06/28 03:01:50;;;;;;;9.55;4.65;;;;;;;21.98;72.80;100396.75;6210588;23;20092;-74
2022/06/28 03:04:15;;;;;;;8.68;5.22;;;;;;;21.90;73.22;100382.44;6210902;23;20015;-74
2022/06/28 03:06:41;;;;;;;13.38;4.45;;;;;;;21.85;73.63;100363.94;6210585;23;20011;-74
2022/06/28 03:09:06;;;;;;;9.88;4.68;;;;;;;21.96;73.27;100389.81;6210788;23;20000;-74
2022/06/28 03:11:32;;;;;;;9.98;4.72;;;;;;;21.93;73.42;100384.75;6210747;23;20031;-73
2022/06/28 03:13:57;;;;;;;11.38;5.07;;;;;;;21.96;73.22;100381.63;6210770;23;20004;-74
2022/06/28 03:16:23;;;;;;;8.75;4.68;;;;;;;21.96;72.99;100385.16;6210668;23;20004;-73
2022/06/28 03:18:48;;;;;;;12.07;4.45;;;;;;;21.99;72.71;100392.94;6210505;23;20028;-75
2022/06/28 03:21:13;;;;;;;7.57;4.40;;;;;;;22.01;72.99;100396.31;6210725;23;20321;-73
2022/06/28 03:23:39;;;;;;;11.02;4.53;;;;;;;21.99;72.83;100387.50;6210660;23;20008;-74
2022/06/28 03:26:04;;;;;;;9.93;4.82;;;;;;;22.11;72.22;100379.53;6210736;23;20028;-73
2022/06/28 03:28:30;;;;;;;13.98;4.88;;;;;;;22.19;71.94;100390.28;6184117;23;20016;-73
2022/06/28 03:30:55;;;;;;;12.05;5.20;;;;;;;22.22;71.71;100373.47;6210666;23;20000;-74
2022/06/28 03:33:21;;;;;;;11.52;4.85;;;;;;;22.32;70.95;100380.19;6210776;23;20016;-74
2022/06/28 03:35:46;;;;;;;11.23;5.47;;;;;;;22.40;70.60;100379.16;6210300;23;20004;-74
2022/06/28 03:38:11;;;;;;;12.68;4.55;;;;;;;22.51;69.86;100380.44;6210812;23;20436;-74
2022/06/28 03:40:37;;;;;;;8.90;4.32;;;;;;;22.62;69.88;100380.66;6210662;23;20005;-74
2022/06/28 03:43:02;;;;;;;9.52;5.32;;;;;;;22.71;69.56;100384.88;6211280;23;20012;-74
2022/06/28 03:45:28;;;;;;;7.07;5.00;;;;;;;22.88;68.53;100397.06;6208672;23;20022;-74
2022/06/28 03:47:53;;;;;;;11.20;4.60;;;;;;;22.85;67.53;100370.13;6210876;23;20008;-74
2022/06/28 03:50:19;;;;;;;11.48;4.90;;;;;;;23.15;66.43;100400.59;6211038;23;20031;-74
2022/06/28 03:52:44;;;;;;;6.28;4.63;;;;;;;23.21;65.06;100392.34;6210556;23;20622;-75
2022/06/28 03:55:11;;;;;;;6.15;4.65;;;;;;;23.41;64.46;100397.81;6210094;23;20031;-73
2022/06/28 03:57:37;;;;;;;11.10;4.82;;;;;;;23.47;64.47;100388.75;6210403;23;20103;-74
2022/06/28 04:00:03;;;;;;;6.75;4.95;;;;;;;23.74;63.66;100426.78;6210488;23;20139;-75
2022/06/28 04:02:29;;;;;;;7.50;4.53;;;;;;;23.80;63.56;100414.94;6210878;23;20005;-67
2022/06/28 04:04:54;;;;;;;7.72;5.20;;;;;;;24.00;63.22;100421.22;6210632;23;20004;-67
2022/06/28 04:07:20;;;;;;;13.48;5.43;;;;;;;24.12;62.54;100435.88;6210789;23;20004;-66
2022/06/28 04:09:45;;;;;;;8.38;5.07;;;;;;;24.22;62.62;100433.50;6210523;23;19997;-67
2022/06/28 04:12:11;;;;;;;9.23;4.90;;;;;;;24.34;62.13;100442.72;6210833;23;20004;-67
2022/06/28 04:14:36;;;;;;;13.88;5.78;;;;;;;24.47;61.95;100462.91;6210511;23;20524;-67
2022/06/28 04:17:02;;;;;;;13.60;4.47;;;;;;;24.56;60.88;100472.53;6211011;23;20028;-67
2022/06/28 04:19:27;;;;;;;9.23;4.38;;;;;;;24.64;59.99;100484.13;6210596;23;20013;-67
2022/06/28 04:21:53;;;;;;;8.25;4.32;;;;;;;24.73;59.88;100499.22;6210532;23;20004;-67
2022/06/28 04:24:18;;;;;;;8.93;4.38;;;;;;;24.82;59.73;100502.56;6210913;23;20066;-68
2022/06/28 04:26:43;;;;;;;6.82;4.30;;;;;;;24.77;59.28;100488.66;6210281;23;20184;-66
2022/06/28 04:29:09;;;;;;;7.45;4.13;;;;;;;24.97;59.14;100508.56;6184267;23;20005;-67
2022/06/28 04:31:34;;;;;;;6.97;4.38;;;;;;;24.93;58.58;100488.13;6210551;23;20495;-67
2022/06/28 04:34:00;;;;;;;6.32;3.97;;;;;;;25.11;58.63;100499.19;6210697;23;20636;-68
2022/06/28 04:36:26;;;;;;;6.65;3.95;;;;;;;25.17;58.46;100492.75;6210665;23;20000;-67
2022/06/28 04:38:53;;;;;;;7.90;3.75;;;;;;;25.33;58.23;100495.81;6210019;23;20446;-68
2022/06/28 04:41:23;;;;;;;11.80;4.78;;;;;;;25.40;58.13;100501.22;6210544;23;20000;-66
2022/06/28 04:43:48;;;;;;;8.63;4.25;;;;;;;25.48;57.46;100503.72;6210319;23;20004;-68
2022/06/28 04:46:14;;;;;;;8.88;4.05;;;;;;;25.55;56.67;100488.84;6210458;23;20146;-67
2022/06/28 04:48:39;;;;;;;17.55;3.72;;;;;;;25.72;56.37;100506.41;6210058;23;20415;-68
2022/06/28 04:51:11;;;;;;;6.95;3.40;;;;;;;25.87;55.86;100498.63;6210357;23;20013;-66
2022/06/28 04:53:40;;;;;;;6.15;3.42;;;;;;;26.02;55.24;100501.84;6210548;23;20008;-67
2022/06/28 04:56:07;;;;;;;9.23;3.88;;;;;;;26.09;54.55;100504.53;6210329;23;20066;-68
2022/06/28 04:58:33;;;;;;;10.82;3.92;;;;;;;26.18;54.25;100512.22;6183872;23;20331;-67
2022/06/28 05:00:58;;;;;;;3.97;3.42;;;;;;;26.29;53.81;100519.72;6183356;23;20016;-68
2022/06/28 05:03:24;;;;;;;9.20;3.78;;;;;;;26.22;53.55;100512.59;6210100;23;20035;-75
2022/06/28 05:05:49;;;;;;;9.82;4.35;;;;;;;26.20;53.88;100525.75;6209804;23;20027;-74
2022/06/28 05:08:15;;;;;;;16.20;4.30;;;;;;;26.27;53.73;100534.75;6210354;23;20012;-73
2022/06/28 05:10:40;;;;;;;19.63;3.95;;;;;;;26.29;53.96;100533.47;6209992;23;20078;-73
2022/06/28 05:13:06;;;;;;;23.02;4.38;;;;;;;26.42;53.61;100541.53;6210215;23;20005;-74
2022/06/28 05:15:31;;;;;;;10.57;3.78;;;;;;;26.51;52.64;100539.31;6212452;23;20012;-75
2022/06/28 05:17:57;;;;;;;9.82;4.03;;;;;;;26.64;52.48;100549.31;6212011;23;20050;-74
2022/06/28 05:20:22;;;;;;;8.00;3.25;;;;;;;26.76;52.10;100548.28;6210141;23;20449;-75
2022/06/28 05:22:48;;;;;;;16.50;4.78;;;;;;;26.82;51.63;100541.84;6211719;23;20054;-74
2022/06/28 05:25:13;;;;;;;11.43;3.65;;;;;;;27.06;51.96;100560.13;6211888;23;20001;-74
2022/06/28 05:27:39;;;;;;;11.00;3.72;;;;;;;27.24;51.71;100561.97;6211621;23;20402;-66
2022/06/28 05:30:05;;;;;;;17.45;3.22;;;;;;;27.40;51.62;100556.59;6212269;23;20000;-67
2022/06/28 05:32:30;;;;;;;11.68;3.75;;;;;;;27.60;50.61;100568.13;6185378;23;20008;-66
2022/06/28 05:34:56;;;;;;;12.38;3.78;;;;;;;27.74;50.13;100555.78;6211845;23;20024;-67
2022/06/28 05:37:21;;;;;;;11.23;3.38;;;;;;;27.96;48.55;100567.88;6212229;23;20803;-68
2022/06/28 05:39:46;;;;;;;8.30;3.13;;;;;;;28.05;48.78;100579.41;6211540;23;20009;-66
2022/06/28 05:42:14;;;;;;;17.33;4.03;;;;;;;28.14;49.32;100577.94;6211970;23;20015;-67
2022/06/28 05:44:39;;;;;;;8.57;3.38;;;;;;;28.29;48.78;100576.38;6211551;23;20005;-67
2022/06/28 05:47:05;;;;;;;14.10;3.65;;;;;;;28.38;48.46;100565.78;6210236;23;20008;-67
2022/06/28 05:49:30;;;;;;;12.73;3.08;;;;;;;28.59;48.07;100570.66;6211940;23;20491;-68
2022/06/28 05:51:56;;;;;;;8.85;3.75;;;;;;;28.70;47.88;100567.03;6211591;23;20772;-67
2022/06/28 05:54:21;;;;;;;9.27;3.17;;;;;;;28.85;47.18;100566.47;6211848;23;20453;-67
2022/06/28 05:56:47;;;;;;;9.27;3.17;;;;;;;28.96;47.58;100563.66;6211334;23;20066;-66
2022/06/28 05:59:12;;;;;;;9.60;2.75;;;;;;;29.12;47.54;100559.28;6212075;23;20017;-66
2022/06/28 06:01:38;;;;;;;13.82;4.22;;;;;;;29.32;47.02;100562.38;6211312;23;20004;-66
2022/06/28 06:04:03;;;;;;;10.38;3.72;;;;;;;29.46;45.88;100555.41;6212033;23;20012;-66
2022/06/28 06:06:29;;;;;;;14.43;3.35;;;;;;;29.69;45.62;100535.94;6211634;23;20035;-67
2022/06/28 06:08:54;;;;;;;5.85;2.83;;;;;;;29.91;44.63;100500.81;6211550;23;20043;-67
2022/06/28 06:11:20;;;;;;;6.20;3.20;;;;;;;30.16;44.45;100481.78;6211538;23;20000;-67
2022/06/28 06:13:45;;;;;;;5.80;3.17;;;;;;;30.26;43.39;100480.03;6211544;23;20338;-67
2022/06/28 06:16:11;;;;;;;9.18;3.30;;;;;;;30.38;43.44;100486.25;6211563;23;20035;-68
2022/06/28 06:18:36;;;;;;;7.53;2.90;;;;;;;30.41;43.66;100479.34;6211475;23;20007;-74
2022/06/28 06:21:02;;;;;;;10.25;3.17;;;;;;;30.42;44.12;100464.41;6211660;23;20020;-74
2022/06/28 06:23:28;;;;;;;5.82;3.10;;;;;;;30.37;43.46;100436.69;6211600;23;20085;-76
2022/06/28 06:25:53;;;;;;;12.68;3.60;;;;;;;30.39;43.76;100448.31;6211058;23;20007;-75
2022/06/28 06:28:19;;;;;;;7.50;2.85;;;;;;;30.35;44.02;100488.69;6211445;23;20811;-75
2022/06/28 06:30:44;;;;;;;9.35;3.83;;;;;;;30.18;44.57;100502.59;6210599;23;20012;-74
2022/06/28 06:33:10;;;;;;;7.18;3.45;;;;;;;30.31;44.64;100540.97;6211090;23;20448;-76
2022/06/28 06:35:35;;;;;;;16.75;4.03;;;;;;;30.17;44.35;100560.94;6211325;23;20058;-75
2022/06/28 06:38:01;;;;;;;11.65;3.50;;;;;;;30.06;44.95;100570.22;6211014;23;20004;-74
2022/06/28 06:40:30;;;;;;;10.38;3.65;;;;;;;29.99;45.13;100581.44;6210927;23;20437;-75
2022/06/28 06:42:57;;;;;;;14.68;3.78;;;;;;;29.93;45.28;100585.25;6210855;23;20042;-74
2022/06/28 06:45:23;;;;;;;8.00;3.50;;;;;;;29.89;45.75;100594.31;6210968;23;20088;-74
2022/06/28 06:47:49;;;;;;;11.70;3.25;;;;;;;29.83;46.19;100598.94;6210894;23;20645;-75
2022/06/28 06:50:14;;;;;;;7.07;3.45;;;;;;;29.76;46.52;100608.50;6211206;23;19997;-76
2022/06/28 06:52:40;;;;;;;5.43;3.40;;;;;;;29.71;46.85;100627.75;6184504;23;20012;-74
2022/06/28 06:55:06;;;;;;;9.73;3.38;;;;;;;29.57;47.11;100618.09;6211045;23;20015;-73
2022/06/28 06:57:32;;;;;;;11.07;4.13;;;;;;;29.13;47.91;100617.03;6210942;23;20034;-75
2022/06/28 06:59:57;;;;;;;11.35;3.40;;;;;;;29.00;48.21;100595.22;6210460;23;20477;-75
2022/06/28 07:02:23;;;;;;;24.92;4.20;;;;;;;28.93;48.16;100574.34;6210839;23;20005;-75
2022/06/28 07:04:48;;;;;;;8.40;3.08;;;;;;;28.98;47.54;100569.75;6210694;23;20004;-75
2022/06/28 07:07:13;;;;;;;12.68;2.97;;;;;;;28.82;48.11;100533.84;6209288;23;20450;-74
2022/06/28 07:09:39;;;;;;;22.77;3.38;;;;;;;28.70;47.99;100524.75;6210713;23;20450;-74
2022/06/28 07:12:05;;;;;;;6.45;3.05;;;;;;;28.56;48.03;100507.66;6211054;23;20065;-74
2022/06/28 07:14:31;;;;;;;15.30;3.08;;;;;;;28.49;48.04;100512.50;6210632;23;20008;-73
2022/06/28 07:16:57;;;;;;;14.40;2.97;;;;;;;28.40;47.65;100497.38;6210429;23;20012;-74
2022/06/28 07:19:22;;;;;;;8.07;2.75;;;;;;;28.28;48.47;100494.66;6210742;23;20090;-75
2022/06/28 07:21:48;;;;;;;10.95;3.25;;;;;;;28.17;48.28;100456.91;6210460;23;20457;-74
2022/06/28 07:24:13;;;;;;;8.50;2.78;;;;;;;28.20;47.87;100472.97;6210925;23;20084;-75
2022/06/28 07:26:39;;;;;;;6.03;2.72;;;;;;;28.14;47.66;100464.84;6210621;23;20078;-74
2022/06/28 07:29:05;;;;;;;11.10;3.35;;;;;;;27.90;47.93;100442.03;6210496;23;20009;-75
2022/06/28 07:31:31;;;;;;;5.55;3.13;;;;;;;27.90;48.24;100436.50;6210661;23;20345;-75
2022/06/28 07:33:57;;;;;;;6.05;2.95;;;;;;;28.01;48.08;100446.66;6210577;23;20005;-75
2022/06/28 07:36:23;;;;;;;4.30;2.97;;;;;;;28.02;48.36;100461.31;6210470;23;20008;-75
2022/06/28 07:38:48;;;;;;;8.00;2.90;;;;;;;27.99;47.88;100465.34;6210908;23;20503;-74
2022/06/28 07:41:14;;;;;;;5.35;2.85;;;;;;;28.07;48.03;100451.19;6211024;23;20061;-75
2022/06/28 07:43:40;;;;;;;9.52;2.88;;;;;;;28.12;47.97;100442.19;6209324;23;20011;-75
2022/06/28 07:46:05;;;;;;;7.75;2.58;;;;;;;28.22;47.55;100426.69;6210606;23;20004;-75
2022/06/28 07:48:31;;;;;;;5.32;2.70;;;;;;;28.35;47.57;100415.34;6210759;23;20066;-74
2022/06/28 07:53:41;;;;;;;;;;;;;;;28.88;46.90;100414.91;6211030;23;20043;-75
2022/06/28 07:56:06;;;;;;;6.18;2.90;;;;;;;29.15;46.78;100398.53;6210130;23;19944;-75
2022/06/28 07:58:32;;;;;;;5.75;2.85;;;;;;;29.41;46.31;100389.50;6210582;23;20028;-75
2022/06/28 08:00:58;;;;;;;5.28;2.60;;;;;;;29.69;46.63;100368.06;6210023;23;20492;-75
2022/06/28 08:03:24;;;;;;;5.57;2.97;;;;;;;29.81;46.17;100354.09;6210411;23;20055;-75
2022/06/28 08:05:50;;;;;;;8.48;2.80;;;;;;;29.94;45.33;100340.69;6210300;23;20012;-74
2022/06/28 08:08:15;;;;;;;4.70;3.03;;;;;;;29.97;44.15;100323.59;6210395;23;20013;-75
2022/06/28 08:10:41;;;;;;;5.57;2.78;;;;;;;30.18;43.04;100346.81;6183623;23;20034;-74
2022/06/28 08:13:07;;;;;;;6.53;2.80;;;;;;;30.22;42.50;100343.25;6210283;23;20011;-74
2022/06/28 08:15:32;;;;;;;3.67;2.58;;;;;;;30.24;42.32;100365.13;6210222;23;20058;-75
2022/06/28 08:17:58;;;;;;;10.88;2.80;;;;;;;30.31;42.43;100351.91;6210420;23;20007;-73
2022/06/28 08:20:23;;;;;;;5.43;2.60;;;;;;;30.35;42.58;100350.28;6210423;23;20015;-75
2022/06/28 08:22:49;;;;;;;4.88;2.67;;;;;;;30.37;42.63;100339.78;6208738;23;20009;-75
2022/06/28 08:25:14;;;;;;;5.40;2.67;;;;;;;30.40;42.76;100375.22;6210216;23;20358;-74
2022/06/28 08:27:40;;;;;;;7.00;2.80;;;;;;;30.48;42.49;100411.59;6183501;23;20092;-75
2022/06/28 08:30:06;;;;;;;7.53;3.30;;;;;;;30.48;42.20;100419.91;6210345;23;20012;-75
2022/06/28 08:32:32;;;;;;;10.40;2.97;;;;;;;30.65;41.69;100438.34;6210324;23;20008;-75
2022/06/28 08:34:57;;;;;;;6.55;2.63;;;;;;;30.78;40.47;100429.63;6209932;23;20028;-74
2022/06/28 08:37:22;;;;;;;10.10;2.92;;;;;;;31.01;39.52;100427.31;6210729;23;20000;-75
2022/06/28 08:39:48;;;;;;;8.18;2.92;;;;;;;31.16;39.57;100444.06;6183526;23;20329;-74
2022/06/28 08:42:20;;;;;;;9.70;2.35;;;;;;;31.41;40.07;100435.13;6210841;23;20013;-75
2022/06/28 08:44:47;;;;;;;12.10;2.50;;;;;;;31.73;37.01;100446.97;6210330;23;20467;-74
2022/06/28 08:47:17;;;;;;;9.05;2.72;;;;;;;31.91;36.81;100458.47;6210992;23;20035;-75
2022/06/28 08:49:52;;;;;;;8.95;2.65;;;;;;;32.05;36.60;100456.84;6212211;23;20005;-75
2022/06/28 08:52:21;;;;;;;9.40;2.33;;;;;;;32.35;35.71;100467.25;6212142;23;20008;-76
2022/06/28 08:54:48;;;;;;;10.35;2.75;;;;;;;32.49;35.52;100498.94;6185074;23;20013;-75
2022/06/28 08:57:14;;;;;;;10.27;2.45;;;;;;;32.61;35.96;100499.56;6211981;23;20020;-74
2022/06/28 08:59:40;;;;;;;12.45;2.40;;;;;;;32.44;36.79;100497.00;6211841;23;20462;-75
2022/06/28 09:02:06;;;;;;;10.07;2.50;;;;;;;32.39;37.14;100510.88;6211893;23;20425;-75
2022/06/28 09:04:32;;;;;;;12.70;3.05;;;;;;;32.41;37.75;100508.66;6212005;23;20004;-75
2022/06/28 09:06:58;;;;;;;7.32;2.70;;;;;;;32.21;39.15;100519.66;6211693;23;20078;-76
2022/06/28 09:09:24;;;;;;;8.88;2.35;;;;;;;32.11;40.10;100527.94;6211969;23;20080;-75
2022/06/28 09:11:51;;;;;;;8.27;2.80;;;;;;;32.08;40.45;100514.59;6211727;23;20040;-75
2022/06/28 09:14:33;;;;;;;9.80;3.00;;;;;;;31.99;40.49;100532.03;6211866;23;20111;-75
2022/06/28 09:17:27;;;;;;;9.75;3.03;;;;;;;31.86;41.13;100530.59;6211691;23;20005;-74
2022/06/28 09:20:04;;;;;;;11.82;2.75;;;;;;;31.79;41.25;100520.81;6211795;23;20727;-76
2022/06/28 09:22:32;;;;;;;12.98;2.65;;;;;;;31.91;40.12;100529.75;6211834;23;20016;-74
2022/06/28 09:25:00;;;;;;;11.05;2.70;;;;;;;31.77;40.74;100523.84;6211519;23;20015;-75
2022/06/28 09:27:35;;;;;;;9.07;2.60;;;;;;;31.81;40.72;100519.47;6211900;23;20083;-75
2022/06/28 09:30:03;;;;;;;5.57;2.60;;;;;;;31.83;41.10;100522.81;6184703;23;20112;-73
2022/06/28 09:32:32;;;;;;;5.50;2.30;;;;;;;31.88;41.21;100531.16;6211718;23;20008;-74
2022/06/28 09:35:00;;;;;;;11.85;3.03;;;;;;;32.09;40.88;100538.50;6211853;23;20007;-74
2022/06/28 09:37:40;;;;;;;6.95;3.05;;;;;;;32.06;40.99;100532.63;6211582;23;20004;-75
2022/06/28 09:40:15;;;;;;;15.57;3.05;;;;;;;32.17;40.77;100535.19;6211661;23;20015;-74
2022/06/28 09:42:42;;;;;;;6.55;2.67;;;;;;;32.20;41.02;100534.66;6211351;23;20005;-74
2022/06/28 09:45:11;;;;;;;8.50;2.65;;;;;;;32.30;40.67;100522.75;6211840;23;20012;-75
2022/06/28 09:47:48;;;;;;;7.90;3.00;;;;;;;32.26;40.82;100541.06;6210075;23;20008;-75
2022/06/28 09:50:19;;;;;;;10.73;3.10;;;;;;;32.32;40.99;100529.72;6212480;23;20008;-75
2022/06/28 09:52:45;;;;;;;9.60;2.97;;;;;;;32.20;40.46;100520.75;6211627;23;20009;-67
2022/06/28 09:55:14;;;;;;;5.85;2.45;;;;;;;32.22;40.67;100529.66;6211506;23;20050;-75
2022/06/28 09:57:43;;;;;;;7.53;2.75;;;;;;;32.24;40.58;100535.78;6211300;23;20013;-75
2022/06/28 10:00:09;;;;;;;6.80;2.55;;;;;;;32.28;40.03;100527.75;6210829;23;20016;-75
2022/06/28 10:02:35;;;;;;;10.95;2.72;;;;;;;32.16;40.34;100516.88;6211449;23;20001;-75
2022/06/28 10:05:01;;;;;;;8.98;2.70;;;;;;;32.25;39.80;100526.34;6211250;23;20011;-75
2022/06/28 10:07:30;;;;;;;9.48;2.65;;;;;;;32.26;40.39;100539.13;6211363;23;20012;-75
2022/06/28 10:09:57;;;;;;;6.00;2.33;;;;;;;32.29;40.57;100521.94;6210978;23;20001;-75
2022/06/28 10:15:08;;;;;;;8.48;2.80;;;;;;;32.46;40.21;100522.56;6211529;23;20012;-74
2022/06/28 10:18:06;;;;;;;9.88;3.28;;;;;;;32.46;40.25;100521.72;6211469;23;20050;-76
2022/06/28 10:20:34;;;;;;;6.07;3.05;;;;;;;32.63;39.84;100514.81;6176033;23;20016;-66
2022/06/28 10:23:24;;;;;;;7.40;2.75;;;;;;;32.55;39.96;100514.53;6211344;23;20008;-66
2022/06/28 10:26:19;;;;;;;11.00;2.90;;;;;;;32.54;40.26;100510.94;6211248;23;20333;-67
2022/06/28 10:28:45;;;;;;;11.25;2.88;;;;;;;32.74;39.79;100512.06;6211337;23;20319;-65
2022/06/28 10:31:23;;;;;;;6.97;2.97;;;;;;;32.69;39.66;100514.84;6184488;23;20392;-66
2022/06/28 10:33:57;;;;;;;10.23;2.70;;;;;;;32.66;39.76;100507.06;6211338;23;20436;-67
2022/06/28 10:36:31;;;;;;;8.13;2.75;;;;;;;32.60;39.52;100500.66;6211193;23;20062;-68
2022/06/28 10:39:08;;;;;;;;;;;;;;;32.59;39.86;100510.09;6211230;23;20083;-66
2022/06/28 10:41:45;;;;;;;6.97;2.80;;;;;;;32.71;39.39;100505.13;6211267;23;19907;-67
2022/06/28 10:44:24;;;;;;;9.38;3.15;;;;;;;32.76;39.98;100510.72;6211156;23;20036;-67
2022/06/28 10:46:59;;;;;;;11.10;2.80;;;;;;;32.67;40.11;100501.22;6210922;23;20497;-75
2022/06/28 10:49:24;;;;;;;7.65;2.70;;;;;;;32.54;40.84;100487.88;6184227;23;20066;-74
2022/06/28 10:52:09;;;;;;;11.07;3.00;;;;;;;32.71;40.64;100501.50;6211036;23;20109;-74
2022/06/28 10:54:36;;;;;;;9.45;2.80;;;;;;;32.63;41.18;100490.94;6211128;23;20012;-76
2022/06/28 10:57:19;;;;;;;8.50;2.40;;;;;;;32.76;40.60;100504.31;6210639;23;20040;-75
2022/06/28 10:59:47;;;;;;;12.90;3.08;;;;;;;32.70;40.80;100500.69;6210497;23;20028;-75
2022/06/28 11:02:13;;;;;;;6.45;2.95;;;;;;;32.59;41.41;100491.50;6184815;23;20004;-75
2022/06/28 11:04:39;;;;;;;9.15;2.45;;;;;;;32.63;41.25;100504.84;6184517;23;20007;-75
2022/06/28 11:07:19;;;;;;;8.05;2.60;;;;;;;32.66;41.24;100504.28;6211431;23;20054;-76
2022/06/28 11:09:47;;;;;;;8.63;3.03;;;;;;;32.63;41.75;100498.16;6210822;23;20075;-74
2022/06/28 11:12:20;;;;;;;6.38;2.75;;;;;;;32.67;41.04;100489.28;6210971;23;20100;-76
2022/06/28 11:14:51;;;;;;;6.68;2.60;;;;;;;32.81;40.46;100490.44;6210702;23;20032;-75
2022/06/28 11:17:32;;;;;;;4.20;2.60;;;;;;;32.81;40.27;100482.09;6210790;23;20447;-74
2022/06/28 11:20:09;;;;;;;4.28;2.60;;;;;;;32.82;40.14;100483.75;6210971;23;20334;-75
2022/06/28 11:22:49;;;;;;;20.77;3.15;;;;;;;32.92;39.32;100479.06;6211026;23;20031;-74
2022/06/28 11:25:16;;;;;;;6.65;2.22;;;;;;;32.92;39.01;100475.44;6210860;23;20371;-75
2022/06/28 11:27:56;;;;;;;5.18;2.30;;;;;;;32.93;38.56;100475.19;6183529;23;20012;-76
2022/06/28 11:30:27;;;;;;;7.10;2.17;;;;;;;33.05;38.19;100472.13;6210972;23;20016;-75
2022/06/28 11:32:55;;;;;;;9.65;2.30;;;;;;;32.95;37.99;100453.50;6210598;23;20012;-76
2022/06/28 11:35:23;;;;;;;6.55;2.50;;;;;;;33.10;37.42;100469.31;6211037;23;20401;-76